Paradise, Canada
Current Conditions -  °F | °C
As of 4:00 PM on Saturday 25 Oct 2014 (Local Time) from CYQX Reporting Station
Light Rain Light Rain  
Wind Chill: 32°   Ceiling: 600
Heat Index: 41°   Visibility: 2.5mi
Dew Point: 41°   Wind: 20mph
Humidity: 100%   Direction: 50°NE
Pressure: 29.52"   Gusts: 28mph
Location:  49.37°N, 55.33°W
Report Text: CYQX 251800Z 05017G24KT 2 1/2SM -RA BR BKN006 OVC012 05/05 A2952 RMK FG2SF5SC1 SLP002
Loading
Personal Weather Stations






























Interactive Weather Map
Tropical Storm Tracking
New forecast layout! Learn more

10-Day Weather Forecast

Advertisements
Track Severe Weather on mobile